sensor_id;sensor_type;location;lat;lon;timestamp;temperature;humidity
11067;DHT22;29763;50.904;5.530;2023-03-23T00:02:29;12.50;99.90
11067;DHT22;29763;50.904;5.530;2023-03-23T00:04:56;12.50;99.90
11067;DHT22;29763;50.904;5.530;2023-03-23T00:07:24;12.50;99.90
11067;DHT22;29763;50.904;5.530;2023-03-23T00:09:55;12.50;99.90
11067;DHT22;29763;50.904;5.530;2023-03-23T00:12:26;12.50;99.90
11067;DHT22;29763;50.904;5.530;2023-03-23T00:15:06;12.50;99.90
11067;DHT22;29763;50.904;5.530;2023-03-23T00:17:34;12.50;99.90
11067;DHT22;29763;50.904;5.530;2023-03-23T00:20:01;12.50;99.90
11067;DHT22;29763;50.904;5.530;2023-03-23T00:22:29;12.50;99.90
11067;DHT22;29763;50.904;5.530;2023-03-23T00:24:56;12.50;99.90
11067;DHT22;29763;50.904;5.530;2023-03-23T00:27:24;12.50;99.90
11067;DHT22;29763;50.904;5.530;2023-03-23T00:29:51;12.50;99.90
11067;DHT22;29763;50.904;5.530;2023-03-23T00:32:21;12.50;99.90
11067;DHT22;29763;50.904;5.530;2023-03-23T00:34:57;12.50;99.90
11067;DHT22;29763;50.904;5.530;2023-03-23T00:37:43;12.50;99.90
11067;DHT22;29763;50.904;5.530;2023-03-23T00:40:10;12.50;99.90
11067;DHT22;29763;50.904;5.530;2023-03-23T00:42:37;12.60;99.90
11067;DHT22;29763;50.904;5.530;2023-03-23T00:45:05;12.60;99.90
11067;DHT22;29763;50.904;5.530;2023-03-23T00:47:37;12.60;99.90
11067;DHT22;29763;50.904;5.530;2023-03-23T00:50:06;12.60;99.90
11067;DHT22;29763;50.904;5.530;2023-03-23T00:52:34;12.60;99.90
11067;DHT22;29763;50.904;5.530;2023-03-23T00:55:03;12.60;99.90
11067;DHT22;29763;50.904;5.530;2023-03-23T00:57:30;12.60;99.90
11067;DHT22;29763;50.904;5.530;2023-03-23T00:59:55;12.60;99.90
11067;DHT22;29763;50.904;5.530;2023-03-23T01:02:23;12.60;99.90
11067;DHT22;29763;50.904;5.530;2023-03-23T01:04:53;12.60;99.90
11067;DHT22;29763;50.904;5.530;2023-03-23T01:07:20;12.60;99.90
11067;DHT22;29763;50.904;5.530;2023-03-23T01:09:47;12.60;99.90
11067;DHT22;29763;50.904;5.530;2023-03-23T01:12:14;12.60;99.90
11067;DHT22;29763;50.904;5.530;2023-03-23T01:14:42;12.60;99.90
11067;DHT22;29763;50.904;5.530;2023-03-23T01:17:08;12.50;99.90
11067;DHT22;29763;50.904;5.530;2023-03-23T01:19:33;12.60;99.90
11067;DHT22;29763;50.904;5.530;2023-03-23T01:22:00;12.50;99.90
11067;DHT22;29763;50.904;5.530;2023-03-23T01:24:27;12.50;99.90
11067;DHT22;29763;50.904;5.530;2023-03-23T01:26:52;12.50;99.90
11067;DHT22;29763;50.904;5.530;2023-03-23T01:29:19;12.50;99.90
11067;DHT22;29763;50.904;5.530;2023-03-23T01:31:45;12.50;99.90
11067;DHT22;29763;50.904;5.530;2023-03-23T01:34:12;12.40;99.90
11067;DHT22;29763;50.904;5.530;2023-03-23T01:36:38;12.40;99.90
11067;DHT22;29763;50.904;5.530;2023-03-23T01:39:06;12.40;99.90
11067;DHT22;29763;50.904;5.530;2023-03-23T01:41:33;12.40;99.90
11067;DHT22;29763;50.904;5.530;2023-03-23T01:44:59;12.40;99.90
11067;DHT22;29763;50.904;5.530;2023-03-23T01:46:52;12.40;99.90
11067;DHT22;29763;50.904;5.530;2023-03-23T01:49:25;12.40;99.90
11067;DHT22;29763;50.904;5.530;2023-03-23T01:51:59;12.40;99.90
11067;DHT22;29763;50.904;5.530;2023-03-23T01:54:27;12.40;99.90
11067;DHT22;29763;50.904;5.530;2023-03-23T01:57:07;12.40;99.90
11067;DHT22;29763;50.904;5.530;2023-03-23T01:59:36;12.40;99.90
11067;DHT22;29763;50.904;5.530;2023-03-23T02:02:03;12.40;99.90
11067;DHT22;29763;50.904;5.530;2023-03-23T02:04:30;12.40;99.90
11067;DHT22;29763;50.904;5.530;2023-03-23T02:06:58;12.40;99.90
11067;DHT22;29763;50.904;5.530;2023-03-23T02:09:27;12.40;99.90
11067;DHT22;29763;50.904;5.530;2023-03-23T02:11:54;12.40;99.90
11067;DHT22;29763;50.904;5.530;2023-03-23T02:14:21;12.40;99.90
11067;DHT22;29763;50.904;5.530;2023-03-23T02:17:09;12.50;99.90
11067;DHT22;29763;50.904;5.530;2023-03-23T02:25:23;12.50;99.90
11067;DHT22;29763;50.904;5.530;2023-03-23T02:33:43;12.50;99.90
11067;DHT22;29763;50.904;5.530;2023-03-23T02:36:23;12.50;99.90
11067;DHT22;29763;50.904;5.530;2023-03-23T02:41:52;12.50;99.90
11067;DHT22;29763;50.904;5.530;2023-03-23T02:44:19;12.50;99.90
11067;DHT22;29763;50.904;5.530;2023-03-23T02:46:49;12.50;99.90
11067;DHT22;29763;50.904;5.530;2023-03-23T02:49:19;12.50;99.90
11067;DHT22;29763;50.904;5.530;2023-03-23T02:51:48;12.50;99.90
11067;DHT22;29763;50.904;5.530;2023-03-23T02:54:17;12.50;99.90
11067;DHT22;29763;50.904;5.530;2023-03-23T02:56:47;12.50;99.90
11067;DHT22;29763;50.904;5.530;2023-03-23T02:59:14;12.50;99.90
11067;DHT22;29763;50.904;5.530;2023-03-23T03:01:48;12.50;99.90
11067;DHT22;29763;50.904;5.530;2023-03-23T03:04:18;12.50;99.90
11067;DHT22;29763;50.904;5.530;2023-03-23T03:06:55;12.50;99.90
11067;DHT22;29763;50.904;5.530;2023-03-23T03:09:31;12.50;99.90
11067;DHT22;29763;50.904;5.530;2023-03-23T03:12:09;12.50;99.90
11067;DHT22;29763;50.904;5.530;2023-03-23T03:14:41;12.50;99.90
11067;DHT22;29763;50.904;5.530;2023-03-23T03:17:26;12.50;99.90
11067;DHT22;29763;50.904;5.530;2023-03-23T03:19:59;12.40;99.90
11067;DHT22;29763;50.904;5.530;2023-03-23T03:22:32;12.40;99.90
11067;DHT22;29763;50.904;5.530;2023-03-23T03:25:00;12.40;99.90
11067;DHT22;29763;50.904;5.530;2023-03-23T03:27:29;12.40;99.90
11067;DHT22;29763;50.904;5.530;2023-03-23T03:29:59;12.40;99.90
11067;DHT22;29763;50.904;5.530;2023-03-23T03:32:39;12.40;99.90
11067;DHT22;29763;50.904;5.530;2023-03-23T03:35:07;12.40;99.90
11067;DHT22;29763;50.904;5.530;2023-03-23T03:37:37;12.40;99.90
11067;DHT22;29763;50.904;5.530;2023-03-23T03:40:11;12.40;99.90
11067;DHT22;29763;50.904;5.530;2023-03-23T03:42:39;12.40;99.90
11067;DHT22;29763;50.904;5.530;2023-03-23T03:45:08;12.50;99.90
11067;DHT22;29763;50.904;5.530;2023-03-23T03:47:36;12.50;99.90
11067;DHT22;29763;50.904;5.530;2023-03-23T03:50:04;12.40;99.90
11067;DHT22;29763;50.904;5.530;2023-03-23T03:52:33;12.50;99.90
11067;DHT22;29763;50.904;5.530;2023-03-23T03:54:59;12.50;99.90
11067;DHT22;29763;50.904;5.530;2023-03-23T03:57:28;12.40;99.90
11067;DHT22;29763;50.904;5.530;2023-03-23T03:59:55;12.40;99.90
11067;DHT22;29763;50.904;5.530;2023-03-23T04:02:21;12.40;99.90
11067;DHT22;29763;50.904;5.530;2023-03-23T04:04:47;12.40;99.90
11067;DHT22;29763;50.904;5.530;2023-03-23T04:07:13;12.40;99.90
11067;DHT22;29763;50.904;5.530;2023-03-23T04:09:43;12.40;99.90
11067;DHT22;29763;50.904;5.530;2023-03-23T04:12:14;12.40;99.90
11067;DHT22;29763;50.904;5.530;2023-03-23T04:14:40;12.40;99.90
11067;DHT22;29763;50.904;5.530;2023-03-23T04:17:06;12.40;99.90
11067;DHT22;29763;50.904;5.530;2023-03-23T04:19:36;12.40;99.90
11067;DHT22;29763;50.904;5.530;2023-03-23T04:22:04;12.40;99.90
11067;DHT22;29763;50.904;5.530;2023-03-23T04:24:38;12.40;99.90
11067;DHT22;29763;50.904;5.530;2023-03-23T04:27:06;12.40;99.90
11067;DHT22;29763;50.904;5.530;2023-03-23T04:29:34;12.30;99.90
11067;DHT22;29763;50.904;5.530;2023-03-23T04:32:00;12.40;99.90
11067;DHT22;29763;50.904;5.530;2023-03-23T04:34:28;12.40;99.90
11067;DHT22;29763;50.904;5.530;2023-03-23T04:36:59;12.40;99.90
11067;DHT22;29763;50.904;5.530;2023-03-23T04:39:25;12.40;99.90
11067;DHT22;29763;50.904;5.530;2023-03-23T04:41:55;12.40;99.90
11067;DHT22;29763;50.904;5.530;2023-03-23T04:44:21;12.40;99.90
11067;DHT22;29763;50.904;5.530;2023-03-23T04:46:47;12.40;99.90
11067;DHT22;29763;50.904;5.530;2023-03-23T04:49:16;12.40;99.90
11067;DHT22;29763;50.904;5.530;2023-03-23T04:51:46;12.40;99.90
11067;DHT22;29763;50.904;5.530;2023-03-23T04:54:12;12.40;99.90
11067;DHT22;29763;50.904;5.530;2023-03-23T04:56:44;12.40;99.90
11067;DHT22;29763;50.904;5.530;2023-03-23T04:59:11;12.40;99.90
11067;DHT22;29763;50.904;5.530;2023-03-23T05:01:49;12.60;99.90
11067;DHT22;29763;50.904;5.530;2023-03-23T05:04:15;12.60;99.90
11067;DHT22;29763;50.904;5.530;2023-03-23T05:06:50;12.60;99.90
11067;DHT22;29763;50.904;5.530;2023-03-23T05:09:22;12.50;99.90
11067;DHT22;29763;50.904;5.530;2023-03-23T05:11:49;12.40;99.90
11067;DHT22;29763;50.904;5.530;2023-03-23T05:14:19;12.40;99.90
11067;DHT22;29763;50.904;5.530;2023-03-23T05:16:45;12.30;99.90
11067;DHT22;29763;50.904;5.530;2023-03-23T05:19:14;12.30;99.90
11067;DHT22;29763;50.904;5.530;2023-03-23T05:21:47;12.30;99.90
11067;DHT22;29763;50.904;5.530;2023-03-23T05:24:14;12.30;99.90
11067;DHT22;29763;50.904;5.530;2023-03-23T05:26:40;12.40;99.90
11067;DHT22;29763;50.904;5.530;2023-03-23T05:29:05;12.40;99.90
11067;DHT22;29763;50.904;5.530;2023-03-23T05:31:31;12.30;99.90
11067;DHT22;29763;50.904;5.530;2023-03-23T05:33:58;12.30;99.90
11067;DHT22;29763;50.904;5.530;2023-03-23T05:36:25;12.30;99.90
11067;DHT22;29763;50.904;5.530;2023-03-23T05:38:51;12.20;99.90
11067;DHT22;29763;50.904;5.530;2023-03-23T05:41:18;12.20;99.90
11067;DHT22;29763;50.904;5.530;2023-03-23T05:43:44;12.20;99.90
11067;DHT22;29763;50.904;5.530;2023-03-23T05:46:10;12.20;99.90
11067;DHT22;29763;50.904;5.530;2023-03-23T05:48:37;12.20;99.90
11067;DHT22;29763;50.904;5.530;2023-03-23T05:51:06;12.10;99.90
11067;DHT22;29763;50.904;5.530;2023-03-23T05:53:32;12.10;99.90
11067;DHT22;29763;50.904;5.530;2023-03-23T05:56:00;12.10;99.90
11067;DHT22;29763;50.904;5.530;2023-03-23T05:58:27;12.10;99.90
11067;DHT22;29763;50.904;5.530;2023-03-23T06:00:59;12.10;99.90
11067;DHT22;29763;50.904;5.530;2023-03-23T06:03:28;12.10;99.90
11067;DHT22;29763;50.904;5.530;2023-03-23T06:05:59;12.10;99.90
11067;DHT22;29763;50.904;5.530;2023-03-23T06:08:33;12.10;99.90
11067;DHT22;29763;50.904;5.530;2023-03-23T06:11:04;12.10;99.90
11067;DHT22;29763;50.904;5.530;2023-03-23T06:13:31;12.10;99.90
11067;DHT22;29763;50.904;5.530;2023-03-23T06:15:57;12.10;99.90
11067;DHT22;29763;50.904;5.530;2023-03-23T06:18:24;12.10;99.90
11067;DHT22;29763;50.904;5.530;2023-03-23T06:20:57;12.20;99.90
11067;DHT22;29763;50.904;5.530;2023-03-23T06:23:26;12.10;99.90
11067;DHT22;29763;50.904;5.530;2023-03-23T06:25:54;12.20;99.90
11067;DHT22;29763;50.904;5.530;2023-03-23T06:28:24;12.20;99.90
11067;DHT22;29763;50.904;5.530;2023-03-23T06:30:53;12.30;99.90
11067;DHT22;29763;50.904;5.530;2023-03-23T06:33:21;12.30;99.90
11067;DHT22;29763;50.904;5.530;2023-03-23T06:35:49;12.30;99.90
11067;DHT22;29763;50.904;5.530;2023-03-23T06:38:15;12.30;99.90
11067;DHT22;29763;50.904;5.530;2023-03-23T06:40:42;12.40;99.90
11067;DHT22;29763;50.904;5.530;2023-03-23T06:43:12;12.40;99.90
11067;DHT22;29763;50.904;5.530;2023-03-23T06:45:41;12.40;99.90
11067;DHT22;29763;50.904;5.530;2023-03-23T06:48:12;12.40;99.90
11067;DHT22;29763;50.904;5.530;2023-03-23T06:50:52;12.50;99.90
11067;DHT22;29763;50.904;5.530;2023-03-23T06:53:20;12.50;99.90
11067;DHT22;29763;50.904;5.530;2023-03-23T06:55:52;12.50;99.90
11067;DHT22;29763;50.904;5.530;2023-03-23T06:58:19;12.60;99.90
11067;DHT22;29763;50.904;5.530;2023-03-23T07:00:48;12.60;99.90
11067;DHT22;29763;50.904;5.530;2023-03-23T07:03:14;12.60;99.90
11067;DHT22;29763;50.904;5.530;2023-03-23T07:05:41;12.60;99.90
11067;DHT22;29763;50.904;5.530;2023-03-23T07:08:08;12.60;99.90
11067;DHT22;29763;50.904;5.530;2023-03-23T07:10:35;12.60;99.90
11067;DHT22;29763;50.904;5.530;2023-03-23T07:13:02;12.70;99.90
11067;DHT22;29763;50.904;5.530;2023-03-23T07:15:29;12.60;99.90
11067;DHT22;29763;50.904;5.530;2023-03-23T07:17:55;12.60;99.90
11067;DHT22;29763;50.904;5.530;2023-03-23T07:20:22;12.70;99.90
11067;DHT22;29763;50.904;5.530;2023-03-23T07:22:47;12.70;99.90
11067;DHT22;29763;50.904;5.530;2023-03-23T07:25:14;12.70;99.90
11067;DHT22;29763;50.904;5.530;2023-03-23T07:27:48;12.80;99.90
11067;DHT22;29763;50.904;5.530;2023-03-23T07:30:17;12.80;99.90
11067;DHT22;29763;50.904;5.530;2023-03-23T07:32:43;12.90;99.90
11067;DHT22;29763;50.904;5.530;2023-03-23T07:35:17;12.90;99.90
11067;DHT22;29763;50.904;5.530;2023-03-23T07:37:42;12.90;99.90
11067;DHT22;29763;50.904;5.530;2023-03-23T07:40:11;12.90;99.90
11067;DHT22;29763;50.904;5.530;2023-03-23T07:43:07;13.00;99.90
11067;DHT22;29763;50.904;5.530;2023-03-23T07:45:34;13.00;99.90
11067;DHT22;29763;50.904;5.530;2023-03-23T07:48:00;13.00;99.90
11067;DHT22;29763;50.904;5.530;2023-03-23T07:50:32;13.10;99.90
11067;DHT22;29763;50.904;5.530;2023-03-23T07:53:04;13.10;99.90
11067;DHT22;29763;50.904;5.530;2023-03-23T07:55:30;13.10;99.90
11067;DHT22;29763;50.904;5.530;2023-03-23T07:58:04;13.10;99.90
11067;DHT22;29763;50.904;5.530;2023-03-23T08:00:30;13.00;99.90
11067;DHT22;29763;50.904;5.530;2023-03-23T08:02:57;13.00;99.90
11067;DHT22;29763;50.904;5.530;2023-03-23T08:05:29;13.10;99.90
11067;DHT22;29763;50.904;5.530;2023-03-23T08:07:56;13.10;99.90
11067;DHT22;29763;50.904;5.530;2023-03-23T08:10:24;13.10;99.90
11067;DHT22;29763;50.904;5.530;2023-03-23T08:12:54;13.10;99.90
11067;DHT22;29763;50.904;5.530;2023-03-23T08:15:24;13.20;99.90
11067;DHT22;29763;50.904;5.530;2023-03-23T08:17:51;13.30;99.90
11067;DHT22;29763;50.904;5.530;2023-03-23T08:20:23;13.30;99.90
11067;DHT22;29763;50.904;5.530;2023-03-23T08:22:56;13.20;99.90
11067;DHT22;29763;50.904;5.530;2023-03-23T08:25:23;13.20;99.90
11067;DHT22;29763;50.904;5.530;2023-03-23T08:27:53;13.10;99.90
11067;DHT22;29763;50.904;5.530;2023-03-23T08:30:21;13.00;99.90
11067;DHT22;29763;50.904;5.530;2023-03-23T08:32:59;13.00;99.90
11067;DHT22;29763;50.904;5.530;2023-03-23T08:35:26;12.90;99.90
11067;DHT22;29763;50.904;5.530;2023-03-23T08:37:53;12.90;99.90
11067;DHT22;29763;50.904;5.530;2023-03-23T08:40:22;12.90;99.90
11067;DHT22;29763;50.904;5.530;2023-03-23T08:42:58;12.90;99.90
11067;DHT22;29763;50.904;5.530;2023-03-23T08:45:26;12.90;99.90
11067;DHT22;29763;50.904;5.530;2023-03-23T08:47:53;12.90;99.90
11067;DHT22;29763;50.904;5.530;2023-03-23T08:50:25;12.90;99.90
11067;DHT22;29763;50.904;5.530;2023-03-23T08:52:53;13.00;99.90
11067;DHT22;29763;50.904;5.530;2023-03-23T08:55:21;13.10;99.90
11067;DHT22;29763;50.904;5.530;2023-03-23T08:57:47;13.10;99.90
11067;DHT22;29763;50.904;5.530;2023-03-23T09:00:17;13.10;99.90
11067;DHT22;29763;50.904;5.530;2023-03-23T09:02:48;13.10;99.90
11067;DHT22;29763;50.904;5.530;2023-03-23T09:05:15;13.00;99.90
11067;DHT22;29763;50.904;5.530;2023-03-23T09:07:47;12.90;99.90
11067;DHT22;29763;50.904;5.530;2023-03-23T09:10:13;12.80;99.90
11067;DHT22;29763;50.904;5.530;2023-03-23T09:12:41;12.80;99.90
11067;DHT22;29763;50.904;5.530;2023-03-23T09:15:09;12.70;99.90
11067;DHT22;29763;50.904;5.530;2023-03-23T09:17:40;12.70;99.90
11067;DHT22;29763;50.904;5.530;2023-03-23T09:20:08;12.80;99.90
11067;DHT22;29763;50.904;5.530;2023-03-23T09:22:42;12.80;99.90
11067;DHT22;29763;50.904;5.530;2023-03-23T09:25:10;12.80;99.90
11067;DHT22;29763;50.904;5.530;2023-03-23T09:27:38;12.80;99.90
11067;DHT22;29763;50.904;5.530;2023-03-23T09:30:11;12.80;99.90
11067;DHT22;29763;50.904;5.530;2023-03-23T09:32:40;12.80;99.90
11067;DHT22;29763;50.904;5.530;2023-03-23T09:35:09;12.70;99.90
11067;DHT22;29763;50.904;5.530;2023-03-23T09:37:37;12.60;99.90
11067;DHT22;29763;50.904;5.530;2023-03-23T09:40:04;12.60;99.90
11067;DHT22;29763;50.904;5.530;2023-03-23T09:45:24;12.20;99.90
11067;DHT22;29763;50.904;5.530;2023-03-23T09:53:53;11.90;99.90
11067;DHT22;29763;50.904;5.530;2023-03-23T09:56:21;11.80;99.90
11067;DHT22;29763;50.904;5.530;2023-03-23T09:58:53;11.70;99.90
11067;DHT22;29763;50.904;5.530;2023-03-23T10:01:31;11.70;99.90
11067;DHT22;29763;50.904;5.530;2023-03-23T10:07:12;11.60;99.90
11067;DHT22;29763;50.904;5.530;2023-03-23T10:09:40;11.70;99.90
11067;DHT22;29763;50.904;5.530;2023-03-23T10:15:29;12.10;99.90
11067;DHT22;29763;50.904;5.530;2023-03-23T10:18:02;12.30;99.90
11067;DHT22;29763;50.904;5.530;2023-03-23T10:28:46;12.90;99.90
11067;DHT22;29763;50.904;5.530;2023-03-23T10:31:40;13.00;99.90
11067;DHT22;29763;50.904;5.530;2023-03-23T10:34:14;12.90;99.90
11067;DHT22;29763;50.904;5.530;2023-03-23T10:37:35;12.70;99.90
11067;DHT22;29763;50.904;5.530;2023-03-23T10:39:55;12.40;99.90
11067;DHT22;29763;50.904;5.530;2023-03-23T10:42:29;12.20;99.90
11067;DHT22;29763;50.904;5.530;2023-03-23T10:45:20;12.20;99.90
11067;DHT22;29763;50.904;5.530;2023-03-23T10:47:57;12.00;99.90
11067;DHT22;29763;50.904;5.530;2023-03-23T10:50:34;11.90;99.90
11067;DHT22;29763;50.904;5.530;2023-03-23T10:53:01;11.80;99.90
11067;DHT22;29763;50.904;5.530;2023-03-23T10:55:39;11.70;99.90
11067;DHT22;29763;50.904;5.530;2023-03-23T10:58:10;11.70;99.90
11067;DHT22;29763;50.904;5.530;2023-03-23T11:00:42;11.70;99.90
11067;DHT22;29763;50.904;5.530;2023-03-23T11:06:08;11.60;99.90
11067;DHT22;29763;50.904;5.530;2023-03-23T11:08:46;11.60;99.90
11067;DHT22;29763;50.904;5.530;2023-03-23T11:11:25;11.70;99.90
11067;DHT22;29763;50.904;5.530;2023-03-23T11:13:59;11.70;99.90
11067;DHT22;29763;50.904;5.530;2023-03-23T11:17:02;11.80;99.90
11067;DHT22;29763;50.904;5.530;2023-03-23T11:19:37;11.90;99.90
11067;DHT22;29763;50.904;5.530;2023-03-23T11:24:52;11.80;99.90
11067;DHT22;29763;50.904;5.530;2023-03-23T11:27:28;11.70;99.90
11067;DHT22;29763;50.904;5.530;2023-03-23T11:33:00;11.60;99.90
11067;DHT22;29763;50.904;5.530;2023-03-23T11:35:28;11.60;99.90
11067;DHT22;29763;50.904;5.530;2023-03-23T11:37:56;11.60;99.90
11067;DHT22;29763;50.904;5.530;2023-03-23T11:40:29;11.70;99.90
11067;DHT22;29763;50.904;5.530;2023-03-23T11:43:12;12.00;99.90
11067;DHT22;29763;50.904;5.530;2023-03-23T11:45:58;12.40;99.90
11067;DHT22;29763;50.904;5.530;2023-03-23T11:54:02;13.00;99.90
11067;DHT22;29763;50.904;5.530;2023-03-23T11:56:36;13.10;99.90
11067;DHT22;29763;50.904;5.530;2023-03-23T11:59:09;13.10;99.90
11067;DHT22;29763;50.904;5.530;2023-03-23T12:11:07;14.20;99.90
11067;DHT22;29763;50.904;5.530;2023-03-23T12:17:05;15.00;99.90
11067;DHT22;29763;50.904;5.530;2023-03-23T12:37:31;15.40;99.90
11067;DHT22;29763;50.904;5.530;2023-03-23T12:48:48;14.60;99.90
11067;DHT22;29763;50.904;5.530;2023-03-23T12:54:01;14.90;99.90
11067;DHT22;29763;50.904;5.530;2023-03-23T13:01:57;15.00;99.90
11067;DHT22;29763;50.904;5.530;2023-03-23T13:04:32;14.90;99.90
11067;DHT22;29763;50.904;5.530;2023-03-23T13:07:06;15.20;99.90
11067;DHT22;29763;50.904;5.530;2023-03-23T13:10:40;15.60;99.90
11067;DHT22;29763;50.904;5.530;2023-03-23T13:12:34;15.80;99.90
11067;DHT22;29763;50.904;5.530;2023-03-23T13:18:53;15.70;99.90
11067;DHT22;29763;50.904;5.530;2023-03-23T13:21:21;15.60;99.90
11067;DHT22;29763;50.904;5.530;2023-03-23T13:23:57;15.40;99.90
11067;DHT22;29763;50.904;5.530;2023-03-23T13:26:25;15.20;99.90
11067;DHT22;29763;50.904;5.530;2023-03-23T13:29:09;15.00;99.90
11067;DHT22;29763;50.904;5.530;2023-03-23T13:31:38;14.80;99.90
11067;DHT22;29763;50.904;5.530;2023-03-23T13:36:40;14.50;99.90
11067;DHT22;29763;50.904;5.530;2023-03-23T13:39:26;14.50;99.90
11067;DHT22;29763;50.904;5.530;2023-03-23T13:42:20;14.20;99.90
11067;DHT22;29763;50.904;5.530;2023-03-23T13:47:42;14.00;99.90
11067;DHT22;29763;50.904;5.530;2023-03-23T13:50:11;14.00;99.90
11067;DHT22;29763;50.904;5.530;2023-03-23T13:58:11;14.10;99.90
11067;DHT22;29763;50.904;5.530;2023-03-23T14:00:47;14.30;99.90
11067;DHT22;29763;50.904;5.530;2023-03-23T14:06:22;14.30;99.90
11067;DHT22;29763;50.904;5.530;2023-03-23T14:09:06;14.20;99.90
11067;DHT22;29763;50.904;5.530;2023-03-23T14:12:04;14.50;99.90
11067;DHT22;29763;50.904;5.530;2023-03-23T14:15:01;15.10;99.90
11067;DHT22;29763;50.904;5.530;2023-03-23T14:17:32;15.60;99.90
11067;DHT22;29763;50.904;5.530;2023-03-23T14:20:09;15.90;99.90
11067;DHT22;29763;50.904;5.530;2023-03-23T14:22:44;16.30;99.90
11067;DHT22;29763;50.904;5.530;2023-03-23T14:25:20;16.50;99.90
11067;DHT22;29763;50.904;5.530;2023-03-23T14:27:51;16.30;99.90
11067;DHT22;29763;50.904;5.530;2023-03-23T14:30:34;16.20;99.90
11067;DHT22;29763;50.904;5.530;2023-03-23T14:33:06;16.20;99.90
11067;DHT22;29763;50.904;5.530;2023-03-23T14:35:39;15.90;99.90
11067;DHT22;29763;50.904;5.530;2023-03-23T14:38:20;15.60;99.90
11067;DHT22;29763;50.904;5.530;2023-03-23T14:40:48;15.50;99.90
11067;DHT22;29763;50.904;5.530;2023-03-23T14:43:20;15.40;99.90
11067;DHT22;29763;50.904;5.530;2023-03-23T14:45:52;15.40;99.90
11067;DHT22;29763;50.904;5.530;2023-03-23T14:48:18;15.50;99.90
11067;DHT22;29763;50.904;5.530;2023-03-23T14:50:55;15.70;99.90
11067;DHT22;29763;50.904;5.530;2023-03-23T14:53:40;15.90;99.90
11067;DHT22;29763;50.904;5.530;2023-03-23T14:56:17;15.90;99.90
11067;DHT22;29763;50.904;5.530;2023-03-23T14:58:47;15.90;99.90
11067;DHT22;29763;50.904;5.530;2023-03-23T15:01:23;15.80;99.90
11067;DHT22;29763;50.904;5.530;2023-03-23T15:03:59;15.50;99.90
11067;DHT22;29763;50.904;5.530;2023-03-23T15:06:30;15.40;99.90
11067;DHT22;29763;50.904;5.530;2023-03-23T15:09:00;15.30;99.90
11067;DHT22;29763;50.904;5.530;2023-03-23T15:11:36;15.20;99.90
11067;DHT22;29763;50.904;5.530;2023-03-23T15:14:26;15.20;99.90
11067;DHT22;29763;50.904;5.530;2023-03-23T15:17:00;15.20;99.90
11067;DHT22;29763;50.904;5.530;2023-03-23T15:19:37;15.20;99.90
11067;DHT22;29763;50.904;5.530;2023-03-23T15:25:34;15.30;99.90
11067;DHT22;29763;50.904;5.530;2023-03-23T15:28:30;15.50;99.90
11067;DHT22;29763;50.904;5.530;2023-03-23T15:31:01;15.50;99.90
11067;DHT22;29763;50.904;5.530;2023-03-23T15:33:34;15.50;99.90
11067;DHT22;29763;50.904;5.530;2023-03-23T15:36:07;15.50;99.90
11067;DHT22;29763;50.904;5.530;2023-03-23T15:38:34;15.50;99.90
11067;DHT22;29763;50.904;5.530;2023-03-23T15:41:23;15.50;99.90
11067;DHT22;29763;50.904;5.530;2023-03-23T15:43:55;15.40;99.90
11067;DHT22;29763;50.904;5.530;2023-03-23T15:46:28;15.30;99.90
11067;DHT22;29763;50.904;5.530;2023-03-23T15:49:08;15.20;99.90
11067;DHT22;29763;50.904;5.530;2023-03-23T15:51:36;15.10;99.90
11067;DHT22;29763;50.904;5.530;2023-03-23T15:54:07;15.00;99.90
11067;DHT22;29763;50.904;5.530;2023-03-23T15:56:33;15.20;99.90
11067;DHT22;29763;50.904;5.530;2023-03-23T15:59:00;15.30;99.90
11067;DHT22;29763;50.904;5.530;2023-03-23T16:01:28;15.50;99.90
11067;DHT22;29763;50.904;5.530;2023-03-23T16:04:15;15.60;99.90
11067;DHT22;29763;50.904;5.530;2023-03-23T16:06:41;15.80;99.90
11067;DHT22;29763;50.904;5.530;2023-03-23T16:09:12;15.90;99.90
11067;DHT22;29763;50.904;5.530;2023-03-23T16:11:38;16.00;99.90
11067;DHT22;29763;50.904;5.530;2023-03-23T16:14:06;15.90;99.90
11067;DHT22;29763;50.904;5.530;2023-03-23T16:16:40;15.90;99.90
11067;DHT22;29763;50.904;5.530;2023-03-23T16:19:11;15.80;99.90
11067;DHT22;29763;50.904;5.530;2023-03-23T16:21:38;15.80;99.90
11067;DHT22;29763;50.904;5.530;2023-03-23T16:24:04;15.90;99.90
11067;DHT22;29763;50.904;5.530;2023-03-23T16:26:49;15.70;99.90
11067;DHT22;29763;50.904;5.530;2023-03-23T16:29:16;15.60;99.90
11067;DHT22;29763;50.904;5.530;2023-03-23T16:31:44;15.40;99.90
11067;DHT22;29763;50.904;5.530;2023-03-23T16:34:09;15.40;99.90
11067;DHT22;29763;50.904;5.530;2023-03-23T16:36:36;15.30;99.90
11067;DHT22;29763;50.904;5.530;2023-03-23T16:39:02;15.20;99.90
11067;DHT22;29763;50.904;5.530;2023-03-23T16:41:29;15.20;99.90
11067;DHT22;29763;50.904;5.530;2023-03-23T16:44:04;15.20;99.90
11067;DHT22;29763;50.904;5.530;2023-03-23T16:46:31;15.20;99.90
11067;DHT22;29763;50.904;5.530;2023-03-23T16:49:03;15.20;99.90
11067;DHT22;29763;50.904;5.530;2023-03-23T16:51:30;15.20;99.90
11067;DHT22;29763;50.904;5.530;2023-03-23T16:53:57;15.20;99.90
11067;DHT22;29763;50.904;5.530;2023-03-23T16:56:22;15.10;99.90
11067;DHT22;29763;50.904;5.530;2023-03-23T16:58:48;15.10;99.90
11067;DHT22;29763;50.904;5.530;2023-03-23T17:01:14;15.10;99.90
11067;DHT22;29763;50.904;5.530;2023-03-23T17:03:40;15.10;99.90
11067;DHT22;29763;50.904;5.530;2023-03-23T17:06:08;15.00;99.90
11067;DHT22;29763;50.904;5.530;2023-03-23T17:08:34;15.00;99.90
11067;DHT22;29763;50.904;5.530;2023-03-23T17:11:00;14.90;99.90
11067;DHT22;29763;50.904;5.530;2023-03-23T17:13:26;14.80;99.90
11067;DHT22;29763;50.904;5.530;2023-03-23T17:15:56;14.80;99.90
11067;DHT22;29763;50.904;5.530;2023-03-23T17:18:24;14.80;99.90
11067;DHT22;29763;50.904;5.530;2023-03-23T17:20:52;14.70;99.90
11067;DHT22;29763;50.904;5.530;2023-03-23T17:23:20;14.70;99.90
11067;DHT22;29763;50.904;5.530;2023-03-23T17:25:46;14.70;99.90
11067;DHT22;29763;50.904;5.530;2023-03-23T17:28:13;14.70;99.90
11067;DHT22;29763;50.904;5.530;2023-03-23T17:30:43;14.70;99.90
11067;DHT22;29763;50.904;5.530;2023-03-23T17:33:10;14.70;99.90
11067;DHT22;29763;50.904;5.530;2023-03-23T17:35:44;14.70;99.90
11067;DHT22;29763;50.904;5.530;2023-03-23T17:38:10;14.60;99.90
11067;DHT22;29763;50.904;5.530;2023-03-23T17:40:37;14.50;99.90
11067;DHT22;29763;50.904;5.530;2023-03-23T17:43:04;14.50;99.90
11067;DHT22;29763;50.904;5.530;2023-03-23T17:45:33;14.40;99.90
11067;DHT22;29763;50.904;5.530;2023-03-23T17:48:00;14.40;99.90
11067;DHT22;29763;50.904;5.530;2023-03-23T17:50:26;14.30;99.90
11067;DHT22;29763;50.904;5.530;2023-03-23T17:52:53;14.20;99.90
11067;DHT22;29763;50.904;5.530;2023-03-23T17:55:23;14.20;99.90